Terminal Aerodrome Forecast
Issued by NWS

Home | Current Version | Previous Version | Text Only | Print | Product List | Glossary On
Versions: 1 2 3 4 5 6 7 8 9 10 11 12
821
FTUS46 KMFR 111741
TAFLMT
TAF
KLMT 111741Z 1118/1218 VRB03KT P6SM FEW060 BKN120
     FM112200 17008KT P6SM BKN120
     FM120900 17003KT P6SM BKN070 BKN100=

USA.gov is the U.S. government's official web portal to all federal, state and local government web resources and services.